Mariq — SVA2152 — position and weather

sailwx.info

Track history (hours):
 
Tides and Currents Weather Stations Pressure Air Temp Water Temp Dewpoint Dewpoint Depression Visibility Wind Speed Wind Dir Waves Ship Positions

Mariq

Last reported at 2016-May-31 01:32 UTC. Time now 2016-May-31 14:19 UTC.
Position N 37°33' E 024°13'.

Length 57 m.

Type: Tanker. MMSI: 239758424.

Date/timePositionNaut miles runAvg speedWind from/ knotsBaromVisibWave heightAir tempDewpointWater temp
2016-May-31 01:32N 37°33' E 024°13'29 9.7
2016-May-30 22:33N 37°23' E 024°47'14 9.8
2016-May-30 21:06N 37°19' E 025°04'510.0
2016-May-30 20:33N 37°18' E 025°11'10 9.9
2016-May-30 19:33N 37°16' E 025°23'14 9.5
2016-May-30 18:06N 37°09' E 025°39'  
2016-May-27 03:20N 37°17' E 025°53'7 9.2
2016-May-27 02:33N 37°18' E 025°44'10 9.1
2016-May-27 01:29N 37°19' E 025°32'8 8.9
2016-May-27 00:33N 37°19' E 025°21'9 8.9
2016-May-26 23:33N 37°19' E 025°10'9 9.0
2016-May-26 22:33N 37°20' E 024°59'9 8.8
2016-May-26 21:33N 37°22' E 024°48'28 8.8
2016-May-26 18:26N 37°31' E 024°15'8 8.7
2016-May-26 17:33N 37°36' E 024°08'  
Track history (hours):
 
Tides and Currents Weather Stations Pressure Air Temp Water Temp Dewpoint Dewpoint Depression Visibility Wind Speed Wind Dir Waves Ship Positions

Mariq

Last reported at 2016-May-31 01:32 UTC. Time now 2016-May-31 14:19 UTC.
Position N 37°33' E 024°13'.

Length 57 m.

Type: Tanker. MMSI: 239758424.

Date/timePositionNaut miles runAvg speedWind from/ knotsBaromVisibWave heightAir tempDewpointWater temp
2016-May-31 01:32N 37°33' E 024°13'29 9.7
2016-May-30 22:33N 37°23' E 024°47'14 9.8
2016-May-30 21:06N 37°19' E 025°04'510.0
2016-May-30 20:33N 37°18' E 025°11'10 9.9
2016-May-30 19:33N 37°16' E 025°23'14 9.5
2016-May-30 18:06N 37°09' E 025°39'  
2016-May-27 03:20N 37°17' E 025°53'7 9.2
2016-May-27 02:33N 37°18' E 025°44'10 9.1
2016-May-27 01:29N 37°19' E 025°32'8 8.9
2016-May-27 00:33N 37°19' E 025°21'9 8.9
2016-May-26 23:33N 37°19' E 025°10'9 9.0
2016-May-26 22:33N 37°20' E 024°59'9 8.8
2016-May-26 21:33N 37°22' E 024°48'28 8.8
2016-May-26 18:26N 37°31' E 024°15'8 8.7
2016-May-26 17:33N 37°36' E 024°08'  

Dump ship's entire track history